Time;durP1;ratioP1;P1;durP2;ratioP2;P2;SDS_P1;SDS_P2;PMS_P1;PMS_P2;Temp;Humidity;BMP_temperature;BMP_pressure;BME280_temperature;BME280_humidity;BME280_pressure;Samples;Min_cycle;Max_cycle;Signal;HPM_P1;HPM_P2
2023/10/02 00:01:48;;;;;;;;;;;;;;;17.70;71.83;99788.34;5079322;28;19971;-70
2023/10/02 00:04:16;;;;;;;;;;;;;;;17.72;71.58;99785.16;5089566;28;19973;-70
2023/10/02 00:06:42;;;;;;;;;;;;;;;17.74;71.50;99786.41;5091896;28;19912;-70
2023/10/02 00:09:07;;;;;;;;;;;;;;;17.75;71.67;99793.72;5091035;28;19916;-70
2023/10/02 00:11:35;;;;;;;;;;;;;;;17.78;71.27;99790.13;5071788;28;19912;-70
2023/10/02 00:16:59;;;;;;;;;;;;;;;17.69;71.61;99792.38;5071877;28;19923;-70
2023/10/02 00:19:27;;;;;;;;;;;;;;;17.79;71.18;99790.91;5071573;28;19952;-70
2023/10/02 00:22:08;;;;;;;;;;;;;;;17.81;71.03;99782.91;5087139;28;19916;-70
2023/10/02 00:24:37;;;;;;;;;;;;;;;17.82;70.86;99776.84;5091546;28;19974;-70
2023/10/02 00:27:03;;;;;;;;;;;;;;;17.91;70.61;99792.75;5091794;28;19920;-70
2023/10/02 00:29:28;;;;;;;;;;;;;;;17.83;70.84;99781.31;5091696;28;19919;-70
2023/10/02 00:31:54;;;;;;;;;;;;;;;17.81;71.03;99772.38;5089303;28;19916;-70
2023/10/02 00:34:31;;;;;;;;;;;;;;;17.68;71.42;99779.44;5077296;28;19945;-70
2023/10/02 00:37:11;;;;;;;;;;;;;;;17.61;71.64;99776.47;5088413;28;20361;-70
2023/10/02 00:39:38;;;;;;;;;;;;;;;17.63;71.82;99782.56;5091776;28;19916;-70
2023/10/02 00:45:01;;;;;;;;;;;;;;;17.56;71.63;99782.44;5083719;28;19944;-70
2023/10/02 00:47:41;;;;;;;;;;;;;;;17.48;71.84;99787.94;5093824;28;20402;-70
2023/10/02 00:50:10;;;;;;;;;;;;;;;17.50;71.68;99791.25;5085763;28;19916;-70
2023/10/02 00:52:42;;;;;;;;;;;;;;;17.47;71.85;99794.00;5077012;28;20015;-70
2023/10/02 00:55:10;;;;;;;;;;;;;;;17.43;71.95;99799.56;5095582;28;20355;-70
2023/10/02 00:57:36;;;;;;;;;;;;;;;17.37;72.33;99792.56;5094183;28;20314;-70
2023/10/02 01:00:19;;;;;;;;;;;;;;;17.39;72.09;99795.88;5095511;28;19978;-70
2023/10/02 01:02:48;;;;;;;;;;;;;;;17.36;72.08;99791.75;5095310;28;19912;-70
2023/10/02 01:05:30;;;;;;;;;;;;;;;17.43;71.79;99790.25;5093720;28;19916;-70
2023/10/02 01:07:56;;;;;;;;;;;;;;;17.35;72.06;99789.31;5079447;28;19920;-70
2023/10/02 01:10:23;;;;;;;;;;;;;;;17.34;72.08;99798.97;5090805;28;20023;-70
2023/10/02 01:12:53;;;;;;;;;;;;;;;17.39;71.90;99804.34;5094889;28;19994;-70
2023/10/02 01:15:26;;;;;;;;;;;;;;;17.36;72.00;99791.75;5094236;28;20364;-70
2023/10/02 01:17:52;;;;;;;;;;;;;;;17.40;71.84;99803.16;5093812;28;19916;-70
2023/10/02 01:20:20;;;;;;;;;;;;;;;17.35;72.10;99804.25;5083001;28;19923;-70
2023/10/02 01:22:51;;;;;;;;;;;;;;;17.38;71.86;99805.53;5094339;28;19974;-70
2023/10/02 01:25:18;;;;;;;;;;;;;;;17.41;71.83;99813.25;5094860;28;19919;-70
2023/10/02 01:27:47;;;;;;;;;;;;;;;17.52;71.46;99802.97;5083802;28;19921;-70
2023/10/02 01:30:21;;;;;;;;;;;;;;;17.46;71.65;99803.66;5074463;28;19912;-70
2023/10/02 01:35:48;;;;;;;;;;;;;;;17.44;71.84;99808.88;5078745;28;20019;-70
2023/10/02 01:38:34;;;;;;;;;;;;;;;17.45;71.45;99799.22;5094802;28;20352;-70
2023/10/02 01:41:03;;;;;;;;;;;;;;;17.36;71.86;99800.25;5074027;28;19986;-70
2023/10/02 01:43:32;;;;;;;;;;;;;;;17.30;71.89;99793.25;5074246;28;19920;-70
2023/10/02 01:45:58;;;;;;;;;;;;;;;17.21;72.38;99790.66;5074297;28;19916;-70
2023/10/02 01:48:44;;;;;;;;;;;;;;;17.14;72.73;99784.03;5074088;28;19923;-70
2023/10/02 01:51:15;;;;;;;;;;;;;;;17.22;72.30;99783.00;5079312;28;20314;-70
2023/10/02 01:53:45;;;;;;;;;;;;;;;17.20;72.61;99783.38;5089644;28;20415;-70
2023/10/02 01:56:11;;;;;;;;;;;;;;;17.25;72.42;99788.75;5074172;28;19924;-70
2023/10/02 01:58:39;;;;;;;;;;;;;;;17.27;72.41;99785.53;5074199;28;19912;-70
2023/10/02 02:01:06;;;;;;;;;;;;;;;17.40;71.83;99778.50;5074014;28;20302;-70
2023/10/02 02:03:31;;;;;;;;;;;;;;;17.49;71.60;99788.78;5074091;28;19916;-70
2023/10/02 02:05:56;;;;;;;;;;;;;;;17.48;71.39;99782.28;5074001;28;20012;-70
2023/10/02 02:08:22;;;;;;;;;;;;;;;17.52;71.50;99780.38;5091159;28;19942;-70
2023/10/02 02:10:48;;;;;;;;;;;;;;;17.54;71.30;99779.97;5093990;28;20006;-70
2023/10/02 02:13:14;;;;;;;;;;;;;;;17.45;71.66;99780.22;5093746;28;20370;-70
2023/10/02 02:15:44;;;;;;;;;;;;;;;17.54;71.40;99789.28;5093603;28;19916;-70
2023/10/02 02:18:09;;;;;;;;;;;;;;;17.49;71.31;99781.09;5094033;28;19912;-70
2023/10/02 02:20:44;;;;;;;;;;;;;;;17.58;71.03;99786.53;5093909;28;19935;-70
2023/10/02 02:23:14;;;;;;;;;;;;;;;17.51;71.26;99786.38;5093221;28;19919;-70
2023/10/02 02:25:39;;;;;;;;;;;;;;;17.59;71.00;99787.34;5077615;28;19917;-70
2023/10/02 02:28:06;;;;;;;;;;;;;;;17.66;70.53;99787.47;5093757;28;19923;-70
2023/10/02 02:30:40;;;;;;;;;;;;;;;17.54;70.58;99772.31;5093245;28;19920;-70
2023/10/02 02:33:07;;;;;;;;;;;;;;;17.62;70.23;99780.94;5092493;28;19912;-70
2023/10/02 02:35:35;;;;;;;;;;;;;;;17.61;70.25;99780.13;5093603;28;19941;-70
2023/10/02 02:38:02;;;;;;;;;;;;;;;17.60;70.14;99784.13;5090645;28;19924;-70
2023/10/02 02:40:30;;;;;;;;;;;;;;;17.61;69.82;99776.47;5087488;28;19916;-70
2023/10/02 02:42:56;;;;;;;;;;;;;;;17.63;69.77;99782.56;5076369;28;20391;-71
2023/10/02 02:45:28;;;;;;;;;;;;;;;17.64;69.58;99776.53;5091008;28;19922;-70
2023/10/02 02:48:12;;;;;;;;;;;;;;;17.70;69.41;99781.88;5091705;28;19920;-71
2023/10/02 02:50:40;;;;;;;;;;;;;;;17.78;68.84;99784.47;5093339;28;19912;-72
2023/10/02 02:53:30;;;;;;;;;;;;;;;17.79;68.90;99785.25;5093066;28;19912;-73
2023/10/02 02:56:22;;;;;;;;;;;;;;;17.71;68.92;99786.34;5073182;28;19916;-70
2023/10/02 02:58:49;;;;;;;;;;;;;;;17.66;68.87;99790.31;5088174;28;19970;-70
2023/10/02 03:01:21;;;;;;;;;;;;;;;17.73;68.60;99790.41;5092594;28;19945;-71
2023/10/02 03:03:48;;;;;;;;;;;;;;;17.69;68.63;99792.38;5091422;28;20023;-70
2023/10/02 03:06:17;;;;;;;;;;;;;;;17.76;68.04;99791.69;5090719;28;19946;-72
2023/10/02 03:08:44;;;;;;;;;;;;;;;17.74;68.18;99794.91;5092258;28;19916;-72
2023/10/02 03:11:10;;;;;;;;;;;;;;;17.78;67.80;99790.13;5072699;28;19951;-71
2023/10/02 03:13:40;;;;;;;;;;;;;;;17.69;67.93;99792.38;5089077;28;20358;-72
2023/10/02 03:16:12;;;;;;;;;;;;;;;17.71;67.96;99797.66;5092742;28;19919;-72
2023/10/02 03:18:40;;;;;;;;;;;;;;;17.61;68.25;99799.09;5090470;28;19973;-72
2023/10/02 03:21:14;;;;;;;;;;;;;;;17.74;67.74;99806.22;5090255;28;19931;-71
2023/10/02 03:23:42;;;;;;;;;;;;;;;17.72;67.77;99807.78;5086970;28;19924;-71
2023/10/02 03:26:26;;;;;;;;;;;;;;;17.65;67.92;99808.47;5072374;28;19973;-72
2023/10/02 03:29:00;;;;;;;;;;;;;;;17.57;68.06;99812.34;5072350;28;19995;-71
2023/10/02 03:31:34;;;;;;;;;;;;;;;17.62;67.90;99821.34;5083643;28;19965;-70
2023/10/02 03:34:00;;;;;;;;;;;;;;;17.56;68.01;99822.03;5076130;28;19912;-70
2023/10/02 03:36:27;;;;;;;;;;;;;;;17.56;67.72;99817.19;5082131;28;19966;-70
2023/10/02 03:38:57;;;;;;;;;;;;;;;17.54;68.02;99813.91;5078071;28;19932;-71
2023/10/02 03:41:44;;;;;;;;;;;;;;;17.54;67.93;99820.38;5085866;28;20299;-70
2023/10/02 03:44:07;;;;;;;;;;;;;;;17.60;67.75;99823.72;5076323;28;20377;-70
2023/10/02 03:46:36;;;;;;;;;;;;;;;17.60;67.73;99817.25;5075874;28;20019;-70
2023/10/02 03:49:05;;;;;;;;;;;;;;;17.62;67.32;99827.00;5082107;28;19970;-70
2023/10/02 03:51:37;;;;;;;;;;;;;;;17.53;67.58;99837.72;5075617;28;19916;-69
2023/10/02 03:54:18;;;;;;;;;;;;;;;17.67;66.97;99835.16;5074258;28;19920;-70
2023/10/02 03:56:55;;;;;;;;;;;;;;;17.64;66.99;99832.28;5089107;28;19916;-70
2023/10/02 03:59:21;;;;;;;;;;;;;;;17.70;66.37;99838.47;5074469;28;19920;-70
2023/10/02 04:01:47;;;;;;;;;;;;;;;17.54;66.50;99836.53;5088943;28;19927;-70
2023/10/02 04:06:42;;;;;;;;;;;;;;;17.52;66.46;99834.09;5074628;28;19919;-70
2023/10/02 04:09:24;;;;;;;;;;;;;;;17.53;66.54;99834.91;5072551;28;19924;-71
2023/10/02 04:11:55;;;;;;;;;;;;;;;17.48;66.54;99836.00;5072165;28;19973;-71
2023/10/02 04:14:38;;;;;;;;;;;;;;;17.42;66.84;99839.50;5088734;28;19920;-71
2023/10/02 04:17:20;;;;;;;;;;;;;;;17.48;66.76;99843.69;5080549;28;19912;-72
2023/10/02 04:19:49;;;;;;;;;;;;;;;17.47;66.85;99837.22;5090546;28;19969;-71
2023/10/02 04:22:22;;;;;;;;;;;;;;;17.56;66.57;99841.81;5087268;28;19916;-71
2023/10/02 04:24:51;;;;;;;;;;;;;;;17.48;67.02;99843.69;5086837;28;19969;-70
2023/10/02 04:27:22;;;;;;;;;;;;;;;17.46;66.96;99846.88;5090185;28;20434;-70
2023/10/02 04:32:34;;;;;;;;;;;;;;;17.51;66.76;99854.25;5091297;28;20405;-70
2023/10/02 04:35:02;;;;;;;;;;;;;;;17.52;66.52;99856.72;5089483;28;19912;-70
2023/10/02 04:37:31;;;;;;;;;;;;;;;17.49;66.43;99863.09;5089685;28;19920;-71
2023/10/02 04:42:25;;;;;;;;;;;;;;;17.34;66.71;99862.00;5081024;28;19955;-70
2023/10/02 04:44:56;;;;;;;;;;;;;;;17.50;66.41;99864.75;5075264;28;20311;-70
2023/10/02 04:47:23;;;;;;;;;;;;;;;17.34;66.58;99858.34;5090579;28;19920;-71
2023/10/02 04:55:27;;;;;;;;;;;;;;;17.12;66.87;99861.53;5091972;28;19966;-71
2023/10/02 04:58:02;;;;;;;;;;;;;;;17.15;66.73;99862.81;5091418;28;19920;-71
2023/10/02 05:00:32;;;;;;;;;;;;;;;17.15;66.77;99860.00;5071185;28;19964;-70
2023/10/02 05:05:55;;;;;;;;;;;;;;;17.43;65.62;99875.91;5071440;28;19923;-70
2023/10/02 05:08:29;;;;;;;;;;;;;;;17.41;65.61;99875.47;5071033;28;19920;-70
2023/10/02 05:11:04;;;;;;;;;;;;;;;17.47;64.90;99879.63;5073030;28;20007;-71
2023/10/02 05:16:13;;;;;;;;;;;;;;;17.50;64.29;99883.72;5083581;28;19974;-71
2023/10/02 05:18:44;;;;;;;;;;;;;;;17.64;63.85;99891.69;5082215;28;20357;-71
2023/10/02 05:21:10;;;;;;;;;;;;;;;17.54;63.72;99895.91;5073065;28;20391;-71
2023/10/02 05:23:35;;;;;;;;;;;;;;;17.54;64.12;99898.75;5075005;28;19924;-71
2023/10/02 05:26:04;;;;;;;;;;;;;;;17.66;63.84;99897.78;5083026;28;20014;-78
2023/10/02 05:28:42;;;;;;;;;;;;;;;17.64;63.90;99903.81;5089966;28;19986;-76
2023/10/02 05:31:08;;;;;;;;;;;;;;;17.68;63.11;99916.03;5082610;28;19973;-80
2023/10/02 05:33:37;;;;;;;;;;;;;;;17.83;63.05;99905.78;5084176;28;20321;-76
2023/10/02 05:36:06;;;;;;;;;;;;;;;17.98;62.15;99908.09;5089594;28;19916;-79
2023/10/02 05:38:33;;;;;;;;;;;;;;;17.92;61.79;99911.25;5085491;28;19916;-76
2023/10/02 05:40:59;;;;;;;;;;;;;;;17.80;61.39;99917.88;5079146;28;19920;-77
2023/10/02 05:43:24;;;;;;;;;;;;;;;17.80;61.28;99917.06;5079431;28;19920;-72
2023/10/02 05:45:50;;;;;;;;;;;;;;;17.85;61.21;99916.75;5080843;28;19920;-75
2023/10/02 05:50:52;;;;;;;;;;;;;;;18.13;60.19;99917.72;5085712;28;19928;-73
2023/10/02 05:53:19;;;;;;;;;;;;;;;18.21;59.00;99919.47;5087006;28;19916;-73
2023/10/02 05:55:57;;;;;;;;;;;;;;;18.24;58.13;99925.19;5082648;28;19963;-74
2023/10/02 05:58:31;;;;;;;;;;;;;;;18.20;57.62;99921.47;5091894;28;19916;-74
2023/10/02 06:00:57;;;;;;;;;;;;;;;18.12;57.07;99927.41;5076925;28;19964;-69
2023/10/02 06:03:22;;;;;;;;;;;;;;;18.04;57.82;99932.91;5084145;28;19919;-70
2023/10/02 06:06:10;;;;;;;;;;;;;;;17.99;59.22;99936.03;5079357;28;20387;-73
2023/10/02 06:08:34;;;;;;;;;;;;;;;18.06;59.14;99938.22;5089983;28;19927;-71
2023/10/02 06:11:25;;;;;;;;;;;;;;;18.20;58.85;99929.97;5092277;28;20003;-71
2023/10/02 06:13:50;;;;;;;;;;;;;;;18.29;57.95;99935.38;5084238;28;19920;-74
2023/10/02 06:16:17;;;;;;;;;;;;;;;18.43;56.41;99937.66;5072970;28;19912;-73
2023/10/02 06:18:42;;;;;;;;;;;;;;;18.60;56.68;99942.00;5071884;28;20433;-72
2023/10/02 06:21:10;;;;;;;;;;;;;;;18.71;56.27;99944.22;5076574;28;19951;-70
2023/10/02 06:23:38;;;;;;;;;;;;;;;18.78;55.58;99942.31;5088940;28;19924;-74
2023/10/02 06:26:10;;;;;;;;;;;;;;;18.91;55.54;99950.59;5074318;28;20639;-74
2023/10/02 06:28:36;;;;;;;;;;;;;;;19.10;54.84;99944.03;5072681;28;19926;-74
2023/10/02 06:31:02;;;;;;;;;;;;;;;19.18;54.18;99951.44;5086901;28;19927;-74
2023/10/02 06:33:27;;;;;;;;;;;;;;;19.35;52.36;99958.56;5072259;28;19916;-74
2023/10/02 06:36:00;;;;;;;;;;;;;;;19.39;52.16;99957.81;5072817;28;19923;-74
2023/10/02 06:38:30;;;;;;;;;;;;;;;19.47;49.73;99960.34;5073000;28;19920;-74
2023/10/02 06:40:59;;;;;;;;;;;;;;;19.49;48.92;99957.94;5072448;28;19916;-74
2023/10/02 06:43:32;;;;;;;;;;;;;;;19.57;48.70;99963.72;5076523;28;19916;-74
2023/10/02 06:46:10;;;;;;;;;;;;;;;19.71;47.95;99960.25;5085005;28;19923;-74
2023/10/02 06:48:36;;;;;;;;;;;;;;;19.74;46.96;99968.00;5086448;28;19936;-74
2023/10/02 06:51:04;;;;;;;;;;;;;;;19.85;46.68;99968.13;5075682;28;20340;-74
2023/10/02 06:53:30;;;;;;;;;;;;;;;19.91;45.39;99958.09;5081235;28;19923;-74
2023/10/02 06:56:10;;;;;;;;;;;;;;;19.98;44.27;99961.03;5072670;28;20398;-74
2023/10/02 06:58:56;;;;;;;;;;;;;;;19.95;44.00;99950.44;5072603;28;20364;-74
2023/10/02 07:01:27;;;;;;;;;;;;;;;20.00;43.12;99958.59;5073419;28;19936;-74
2023/10/02 07:03:53;;;;;;;;;;;;;;;20.04;43.42;99964.34;5073609;28;19917;-74
2023/10/02 07:06:19;;;;;;;;;;;;;;;20.19;43.30;99953.97;5073544;28;20284;-74
2023/10/02 07:08:47;;;;;;;;;;;;;;;20.23;42.74;99954.81;5088179;28;20022;-74
2023/10/02 07:11:13;;;;;;;;;;;;;;;20.27;42.41;99966.19;5073898;28;19974;-74
2023/10/02 07:13:51;;;;;;;;;;;;;;;20.28;42.49;99962.97;5072055;28;19962;-74
2023/10/02 07:16:19;;;;;;;;;;;;;;;20.23;42.06;99957.63;5071196;28;19913;-74
2023/10/02 07:18:49;;;;;;;;;;;;;;;20.24;42.56;99959.28;5073421;28;19999;-74
2023/10/02 07:21:21;;;;;;;;;;;;;;;20.25;42.57;99960.09;5070899;28;19918;-74
2023/10/02 07:23:47;;;;;;;;;;;;;;;20.38;41.96;99967.13;5072042;28;19924;-74
2023/10/02 07:26:14;;;;;;;;;;;;;;;20.35;41.91;99967.91;5071917;28;22098;-74
2023/10/02 07:28:50;;;;;;;;;;;;;;;20.59;41.80;99960.84;5090475;28;20432;-74
2023/10/02 07:31:19;;;;;;;;;;;;;;;20.53;41.28;99967.25;5081993;28;19920;-76
2023/10/02 07:33:47;;;;;;;;;;;;;;;20.56;41.67;99966.47;5083322;28;20302;-76
2023/10/02 07:36:14;;;;;;;;;;;;;;;20.71;41.75;99968.25;5081219;28;19922;-77
2023/10/02 07:38:42;;;;;;;;;;;;;;;20.99;40.93;99968.91;5075712;28;19947;-74
2023/10/02 07:41:14;;;;;;;;;;;;;;;20.98;40.62;99965.25;5070768;28;19915;-74
2023/10/02 07:43:39;;;;;;;;;;;;;;;20.89;40.39;99965.59;5070617;28;19926;-75
2023/10/02 07:46:19;;;;;;;;;;;;;;;20.87;40.45;99965.16;5080665;28;20366;-75
2023/10/02 07:48:57;;;;;;;;;;;;;;;20.87;40.46;99972.88;5090983;28;19928;-75
2023/10/02 07:51:30;;;;;;;;;;;;;;;21.00;40.33;99974.19;5069726;28;20410;-74
2023/10/02 07:53:58;;;;;;;;;;;;;;;21.14;40.06;99970.66;5072253;28;20028;-75
2023/10/02 07:56:24;;;;;;;;;;;;;;;21.43;40.22;99981.41;5078168;28;20050;-74
2023/10/02 07:58:55;;;;;;;;;;;;;;;21.39;39.64;99972.84;5092001;28;19946;-75
2023/10/02 08:01:25;;;;;;;;;;;;;;;21.46;39.89;99972.88;5092016;28;19920;-74
2023/10/02 08:03:51;;;;;;;;;;;;;;;21.57;39.41;99980.66;5071877;28;19924;-74
2023/10/02 08:06:37;;;;;;;;;;;;;;;21.51;39.97;99977.38;5074230;28;19912;-75
2023/10/02 08:11:50;;;;;;;;;;;;;;;21.87;38.96;99974.72;5071696;28;20390;-75
2023/10/02 08:17:00;;;;;;;;;;;;;;;22.03;37.87;99973.59;5071890;28;19977;-75
2023/10/02 08:19:25;;;;;;;;;;;;;;;21.92;38.36;99972.72;5071364;28;19916;-74
2023/10/02 08:21:53;;;;;;;;;;;;;;;21.80;38.67;99974.72;5070489;28;20014;-74
2023/10/02 08:24:19;;;;;;;;;;;;;;;22.05;38.62;99967.47;5084362;28;20310;-74
2023/10/02 08:26:44;;;;;;;;;;;;;;;22.20;37.98;99957.72;5072068;28;19965;-74
2023/10/02 08:29:10;;;;;;;;;;;;;;;22.44;37.43;99972.44;5069873;28;19966;-75
2023/10/02 08:31:42;;;;;;;;;;;;;;;22.34;37.13;99956.16;5071383;28;19916;-75
2023/10/02 08:34:09;;;;;;;;;;;;;;;22.34;36.99;99961.84;5076305;28;19916;-74
2023/10/02 08:36:35;;;;;;;;;;;;;;;22.51;36.45;99955.38;5085369;28;20006;-74
2023/10/02 08:39:00;;;;;;;;;;;;;;;22.36;36.77;99959.41;5071307;28;20399;-73
2023/10/02 08:41:27;;;;;;;;;;;;;;;22.51;36.69;99954.59;5077463;28;19920;-74
2023/10/02 08:43:53;;;;;;;;;;;;;;;22.42;36.94;99964.31;5084643;28;19948;-73
2023/10/02 08:46:21;;;;;;;;;;;;;;;22.64;36.41;99955.81;5071317;28;19913;-74
2023/10/02 08:48:56;;;;;;;;;;;;;;;22.76;35.83;99954.59;5072294;28;20446;-74
2023/10/02 08:51:35;;;;;;;;;;;;;;;22.80;36.01;99960.28;5081331;28;20364;-73
2023/10/02 08:54:05;;;;;;;;;;;;;;;22.72;36.29;99965.19;5085310;28;19923;-74
2023/10/02 08:56:48;;;;;;;;;;;;;;;22.97;36.10;99961.50;5085252;28;19923;-78
2023/10/02 08:59:26;;;;;;;;;;;;;;;22.97;35.78;99964.34;5082757;28;19943;-74
2023/10/02 09:02:21;;;;;;;;;;;;;;;22.93;35.65;99952.94;5087187;28;19924;-74
2023/10/02 09:04:52;;;;;;;;;;;;;;;22.85;35.71;99952.16;5082363;28;20298;-78
2023/10/02 09:07:23;;;;;;;;;;;;;;;22.87;36.20;99948.91;5077011;28;20342;-78
2023/10/02 09:10:03;;;;;;;;;;;;;;;23.04;36.04;99961.47;5074776;28;19923;-78
2023/10/02 09:12:29;;;;;;;;;;;;;;;22.74;35.66;99956.19;5089113;28;19924;-80
2023/10/02 09:15:20;;;;;;;;;;;;;;;22.96;35.21;99954.19;5079515;28;19939;-81
2023/10/02 09:17:46;;;;;;;;;;;;;;;23.18;35.19;99957.81;5082380;28;19921;-80
2023/10/02 09:20:15;;;;;;;;;;;;;;;23.22;34.86;99952.91;5073523;28;19984;-81
2023/10/02 09:22:43;;;;;;;;;;;;;;;23.31;35.01;99961.09;5086587;28;20360;-81
2023/10/02 09:25:10;;;;;;;;;;;;;;;23.17;34.57;99941.09;5094928;28;19919;-81
2023/10/02 09:27:54;;;;;;;;;;;;;;;23.24;34.58;99952.50;5081166;28;19942;-82
2023/10/02 09:30:21;;;;;;;;;;;;;;;23.65;34.10;99959.75;5078668;28;19920;-82
2023/10/02 09:32:49;;;;;;;;;;;;;;;23.66;33.72;99945.09;5076218;28;19923;-82
2023/10/02 09:36:06;;;;;;;;;;;;;;;23.74;33.98;99950.75;5083070;28;20420;-82
2023/10/02 09:38:04;;;;;;;;;;;;;;;23.27;34.20;99949.69;5091846;28;19969;-82
2023/10/02 09:40:54;;;;;;;;;;;;;;;23.35;34.25;99946.78;5092466;28;19912;-82
2023/10/02 09:43:23;;;;;;;;;;;;;;;23.63;33.15;99934.47;5094524;28;19912;-82
2023/10/02 09:45:49;;;;;;;;;;;;;;;23.90;33.46;99928.25;5086673;28;19920;-83
2023/10/02 09:51:06;;;;;;;;;;;;;;;24.05;32.98;99933.91;5075702;28;20019;-80
2023/10/02 09:53:41;;;;;;;;;;;;;;;24.24;32.06;99933.38;5085829;28;20287;-80
2023/10/02 09:56:13;;;;;;;;;;;;;;;24.09;32.39;99940.41;5081039;28;19923;-80
2023/10/02 09:58:52;;;;;;;;;;;;;;;24.14;32.39;99917.13;5094372;28;20328;-80
2023/10/02 10:03:51;;;;;;;;;;;;;;;24.59;31.17;99930.69;5080321;28;19955;-78
2023/10/02 10:06:27;;;;;;;;;;;;;;;24.48;31.12;99930.75;5076102;28;19975;-75
2023/10/02 10:12:17;;;;;;;;;;;;;;;24.17;31.09;99918.31;5086117;28;19928;-73
2023/10/02 10:14:36;;;;;;;;;;;;;;;24.40;30.56;99920.63;5071623;28;19920;-74
2023/10/02 10:17:14;;;;;;;;;;;;;;;24.31;31.15;99918.22;5082249;28;20421;-73
2023/10/02 10:19:44;;;;;;;;;;;;;;;24.40;31.50;99915.69;5077344;28;19955;-76
2023/10/02 10:22:34;;;;;;;;;;;;;;;24.56;30.69;99908.66;5069878;28;19912;-79
2023/10/02 10:27:43;;;;;;;;;;;;;;;24.54;30.06;99906.22;5075325;28;19920;-73
2023/10/02 10:30:24;;;;;;;;;;;;;;;24.80;30.20;99898.25;5078042;28;19920;-72
2023/10/02 10:35:34;;;;;;;;;;;;;;;24.33;29.59;99892.09;5082191;28;19923;-76
2023/10/02 10:38:03;;;;;;;;;;;;;;;24.08;29.45;99898.78;5084947;28;19912;-77
2023/10/02 10:40:43;;;;;;;;;;;;;;;24.77;28.40;99887.66;5084625;28;19922;-76
2023/10/02 10:43:12;;;;;;;;;;;;;;;24.71;28.14;99889.31;5070243;28;19916;-76
2023/10/02 10:45:39;;;;;;;;;;;;;;;24.97;28.26;99875.59;5078900;28;19919;-76
2023/10/02 10:48:16;;;;;;;;;;;;;;;25.10;27.79;99884.47;5070397;28;20357;-73
2023/10/02 10:50:56;;;;;;;;;;;;;;;25.14;26.76;99885.22;5085357;28;19919;-74
2023/10/02 10:53:32;;;;;;;;;;;;;;;25.12;25.91;99882.00;5085502;28;19920;-74
2023/10/02 10:56:05;;;;;;;;;;;;;;;25.15;25.37;99877.47;5090205;28;20417;-76
2023/10/02 10:58:33;;;;;;;;;;;;;;;24.99;24.87;99875.19;5078590;28;19981;-72
2023/10/02 11:00:59;;;;;;;;;;;;;;;25.16;25.26;99873.38;5074879;28;20405;-74
2023/10/02 11:03:26;;;;;;;;;;;;;;;25.37;24.22;99878.84;5082150;28;19916;-75
2023/10/02 11:05:52;;;;;;;;;;;;;;;25.02;24.61;99874.34;5090857;28;20359;-72
2023/10/02 11:08:23;;;;;;;;;;;;;;;25.09;23.61;99880.00;5080751;28;19973;-74
2023/10/02 11:11:02;;;;;;;;;;;;;;;25.04;24.68;99874.72;5072437;28;19959;-73
2023/10/02 11:13:50;;;;;;;;;;;;;;;25.25;23.95;99865.09;5079654;28;19938;-75
2023/10/02 11:16:21;;;;;;;;;;;;;;;25.29;22.63;99863.00;5087634;28;20350;-73
2023/10/02 11:19:14;;;;;;;;;;;;;;;25.30;22.84;99861.75;5089822;28;19916;-74
2023/10/02 11:22:01;;;;;;;;;;;;;;;25.09;22.10;99848.50;5070724;28;19943;-74
2023/10/02 11:24:26;;;;;;;;;;;;;;;25.29;22.41;99848.69;5071224;28;20437;-75
2023/10/02 11:26:54;;;;;;;;;;;;;;;25.46;21.98;99851.75;5082419;28;19973;-75
2023/10/02 11:29:22;;;;;;;;;;;;;;;25.40;22.49;99854.28;5087151;28;19927;-74
2023/10/02 11:32:18;;;;;;;;;;;;;;;25.54;22.64;99843.91;5077980;28;19990;-74
2023/10/02 11:34:43;;;;;;;;;;;;;;;25.52;23.11;99838.63;5078231;28;20322;-75
2023/10/02 11:37:11;;;;;;;;;;;;;;;25.60;22.56;99840.16;5079552;28;19917;-73
2023/10/02 11:39:37;;;;;;;;;;;;;;;25.86;23.55;99839.78;5071415;28;19917;-75
2023/10/02 11:42:05;;;;;;;;;;;;;;;25.64;23.88;99829.44;5072525;28;19924;-74
2023/10/02 11:44:31;;;;;;;;;;;;;;;25.78;23.24;99837.03;5079451;28;19917;-72
2023/10/02 11:46:56;;;;;;;;;;;;;;;25.76;23.19;99828.06;5075952;28;20481;-72
2023/10/02 11:49:22;;;;;;;;;;;;;;;25.84;23.35;99836.53;5080836;28;19985;-73
2023/10/02 11:51:47;;;;;;;;;;;;;;;26.03;23.15;99837.88;5078653;28;19920;-68
2023/10/02 11:54:13;;;;;;;;;;;;;;;26.09;23.14;99833.31;5085308;28;19927;-70
2023/10/02 11:56:38;;;;;;;;;;;;;;;26.44;23.50;99834.00;5084748;28;20401;-70
2023/10/02 11:59:04;;;;;;;;;;;;;;;26.54;23.20;99837.09;5080590;28;19916;-71
2023/10/02 12:01:30;;;;;;;;;;;;;;;26.55;22.73;99830.91;5074386;28;19959;-74
2023/10/02 12:03:57;;;;;;;;;;;;;;;26.47;22.70;99838.84;5079879;28;19965;-72
2023/10/02 12:06:31;;;;;;;;;;;;;;;26.42;22.90;99830.72;5073353;28;19970;-71
2023/10/02 12:08:58;;;;;;;;;;;;;;;26.16;23.69;99835.25;5078300;28;19928;-72
2023/10/02 12:11:28;;;;;;;;;;;;;;;26.40;23.41;99826.69;5074423;28;19916;-71
2023/10/02 12:13:54;;;;;;;;;;;;;;;26.58;23.34;99829.25;5077353;28;19923;-69
2023/10/02 12:16:21;;;;;;;;;;;;;;;27.03;22.76;99820.22;5074146;28;19916;-70
2023/10/02 12:18:48;;;;;;;;;;;;;;;27.35;22.63;99811.38;5076834;28;20337;-73
2023/10/02 12:21:14;;;;;;;;;;;;;;;26.63;23.47;99818.06;5074341;28;20395;-72
2023/10/02 12:23:40;;;;;;;;;;;;;;;26.40;24.12;99823.81;5074673;28;19943;-72
2023/10/02 12:26:09;;;;;;;;;;;;;;;26.35;24.15;99823.06;5086632;28;19919;-74
2023/10/02 12:28:35;;;;;;;;;;;;;;;26.61;24.79;99811.16;5083693;28;19931;-74
2023/10/02 12:31:06;;;;;;;;;;;;;;;26.65;23.61;99814.75;5083889;28;19916;-71
2023/10/02 12:33:35;;;;;;;;;;;;;;;26.03;24.60;99806.38;5076732;28;19920;-74
2023/10/02 12:36:00;;;;;;;;;;;;;;;26.54;24.08;99812.09;5083338;28;20390;-71
2023/10/02 12:38:26;;;;;;;;;;;;;;;26.69;24.49;99800.34;5079197;28;19916;-75
2023/10/02 12:40:51;;;;;;;;;;;;;;;26.63;24.51;99800.88;5077723;28;19927;-71
2023/10/02 12:43:17;;;;;;;;;;;;;;;26.72;24.35;99803.16;5080994;28;20025;-73
2023/10/02 12:45:43;;;;;;;;;;;;;;;27.04;24.49;99800.94;5075473;28;19995;-73
2023/10/02 12:48:09;;;;;;;;;;;;;;;26.70;24.57;99797.06;5075017;28;19935;-74
2023/10/02 12:50:38;;;;;;;;;;;;;;;26.86;24.49;99789.78;5084491;28;19916;-73
2023/10/02 12:53:04;;;;;;;;;;;;;;;26.75;23.40;99787.94;5074904;28;19923;-72
2023/10/02 12:55:31;;;;;;;;;;;;;;;26.65;23.46;99785.28;5075134;28;19991;-72
2023/10/02 12:57:57;;;;;;;;;;;;;;;26.63;23.43;99792.25;5078474;28;19924;-72
2023/10/02 13:00:24;;;;;;;;;;;;;;;26.73;23.22;99787.56;5080073;28;19944;-73
2023/10/02 13:02:49;;;;;;;;;;;;;;;26.40;23.29;99786.56;5074818;28;19932;-72
2023/10/02 13:05:14;;;;;;;;;;;;;;;26.67;23.09;99783.59;5089515;28;19917;-72
2023/10/02 13:07:41;;;;;;;;;;;;;;;26.73;22.99;99787.56;5075147;28;20027;-68
2023/10/02 13:10:07;;;;;;;;;;;;;;;26.57;23.31;99796.06;5077353;28;19954;-68
2023/10/02 13:12:34;;;;;;;;;;;;;;;26.75;23.44;99790.78;5092011;28;19952;-69
2023/10/02 13:14:59;;;;;;;;;;;;;;;26.89;23.47;99786.06;5083916;28;20404;-69
2023/10/02 13:17:25;;;;;;;;;;;;;;;26.94;23.39;99779.00;5088302;28;19954;-70
2023/10/02 13:19:50;;;;;;;;;;;;;;;27.31;23.24;99791.34;5092596;28;19970;-72
2023/10/02 13:22:15;;;;;;;;;;;;;;;27.22;23.23;99791.16;5072762;28;19919;-71
2023/10/02 13:24:42;;;;;;;;;;;;;;;27.02;23.21;99789.88;5072624;28;20002;-72
2023/10/02 13:27:07;;;;;;;;;;;;;;;26.89;22.87;99788.94;5071302;28;19924;-70
2023/10/02 13:29:34;;;;;;;;;;;;;;;26.78;23.14;99789.91;5082021;28;19929;-70
2023/10/02 13:32:01;;;;;;;;;;;;;;;26.89;22.96;99780.31;5075541;28;20340;-71
2023/10/02 13:34:26;;;;;;;;;;;;;;;26.45;23.47;99786.84;5086441;28;20003;-68
2023/10/02 13:36:52;;;;;;;;;;;;;;;26.88;23.32;99785.25;5073045;28;20480;-70
2023/10/02 13:39:18;;;;;;;;;;;;;;;26.65;23.52;99783.19;5085734;28;19939;-69
2023/10/02 13:41:45;;;;;;;;;;;;;;;26.63;23.37;99785.72;5082441;28;19916;-70
2023/10/02 13:44:11;;;;;;;;;;;;;;;26.74;23.38;99779.78;5094418;28;19912;-71
2023/10/02 13:46:38;;;;;;;;;;;;;;;26.44;23.56;99782.38;5091256;28;19924;-69
2023/10/02 13:49:04;;;;;;;;;;;;;;;26.53;23.83;99783.84;5078581;28;19929;-71
2023/10/02 13:51:31;;;;;;;;;;;;;;;26.63;23.70;99777.09;5083558;28;19916;-71
2023/10/02 13:53:57;;;;;;;;;;;;;;;26.33;24.06;99779.69;5075742;28;20288;-74